Time;durP1;ratioP1;P1;durP2;ratioP2;P2;SDS_P1;SDS_P2;PMS_P1;PMS_P2;Temp;Humidity;BMP_temperature;BMP_pressure;BME280_temperature;BME280_humidity;BME280_pressure;Samples;Min_cycle;Max_cycle;Signal;HPM_P1;HPM_P2
2022/12/22 03:25:54;;;;;;;0.50;0.50;;;6.80;99.90;;;;;;4398965;32;20093;-77
2022/12/22 03:26:33;;;;;;;0.65;0.65;;;6.70;99.90;;;;;;4396907;32;20077;-77
2022/12/22 03:28:58;;;;;;;0.55;0.55;;;6.70;99.90;;;;;;4407695;32;20164;-77
2022/12/22 03:31:24;;;;;;;0.55;0.55;;;6.70;99.90;;;;;;4409196;32;20117;-77
2022/12/22 03:33:49;;;;;;;0.82;0.65;;;6.80;99.90;;;;;;4406856;32;20094;-77
2022/12/22 03:36:17;;;;;;;0.75;0.70;;;6.80;99.90;;;;;;4405302;32;20101;-77
2022/12/22 03:38:42;;;;;;;0.68;0.65;;;6.90;99.90;;;;;;4410735;32;20102;-77
2022/12/22 03:46:28;;;;;;;2.05;1.17;;;6.90;99.90;;;;;;4401412;32;20090;-78
2022/12/22 03:46:38;;;;;;;0.95;0.95;;;6.90;99.90;;;;;;4399282;32;20196;-78
2022/12/22 03:49:11;;;;;;;0.50;0.50;;;6.90;99.90;;;;;;4411516;32;20130;-78
2022/12/22 03:51:41;;;;;;;0.50;0.50;;;7.00;99.90;;;;;;4414916;32;20467;-78
2022/12/22 03:54:08;;;;;;;0.70;0.68;;;7.00;99.90;;;;;;4411224;32;20081;-77
2022/12/22 03:56:33;;;;;;;0.60;0.60;;;7.00;99.90;;;;;;4412997;32;20082;-78
2022/12/22 03:58:59;;;;;;;3.37;0.85;;;6.90;99.90;;;;;;4409634;32;20194;-78
2022/12/22 04:01:25;;;;;;;0.60;0.60;;;7.00;99.90;;;;;;4413066;32;20132;-78
2022/12/22 04:03:50;;;;;;;0.47;0.47;;;7.00;99.90;;;;;;4410518;32;20098;-78
2022/12/22 04:06:17;;;;;;;0.75;0.52;;;7.00;99.90;;;;;;4410991;32;20079;-78
2022/12/22 04:08:43;;;;;;;1.40;0.50;;;7.00;99.90;;;;;;4407631;32;20144;-78
2022/12/22 04:13:11;;;;;;;0.47;0.47;;;7.00;99.90;;;;;;4399503;32;20546;-78
2022/12/22 04:13:57;;;;;;;1.45;0.68;;;7.00;99.90;;;;;;4385327;32;20153;-78
2022/12/22 04:16:23;;;;;;;0.45;0.45;;;7.00;99.90;;;;;;4407106;32;20110;-78
2022/12/22 04:18:48;;;;;;;0.70;0.47;;;6.90;99.90;;;;;;4407480;32;20094;-77
2022/12/22 04:21:14;;;;;;;17.42;1.37;;;6.90;99.90;;;;;;4407307;32;20086;-78
2022/12/22 04:23:40;;;;;;;0.62;0.62;;;6.80;99.90;;;;;;4406589;32;20094;-77
2022/12/22 04:26:06;;;;;;;0.62;0.62;;;6.80;99.90;;;;;;4407222;32;20144;-78
2022/12/22 04:28:31;;;;;;;1.17;0.73;;;6.90;99.90;;;;;;4412263;32;20093;-79
2022/12/22 04:30:57;;;;;;;0.47;0.47;;;6.90;99.90;;;;;;4412310;32;20132;-79
2022/12/22 04:33:22;;;;;;;0.98;0.73;;;6.90;99.90;;;;;;4406410;32;20240;-78
2022/12/22 04:35:48;;;;;;;0.65;0.65;;;7.00;99.90;;;;;;4401629;32;20069;-78
2022/12/22 04:38:13;;;;;;;0.60;0.60;;;7.00;99.90;;;;;;4404877;32;20057;-79
2022/12/22 04:40:39;;;;;;;0.37;0.37;;;6.90;99.90;;;;;;4404948;32;20057;-79
2022/12/22 04:43:05;;;;;;;0.32;0.32;;;6.90;99.90;;;;;;4394350;32;20067;-79
2022/12/22 04:45:31;;;;;;;0.75;0.75;;;6.90;99.90;;;;;;4404684;32;20081;-79
2022/12/22 04:47:58;;;;;;;0.82;0.82;;;6.90;99.90;;;;;;4417605;32;20702;-79
2022/12/22 04:50:24;;;;;;;0.77;0.65;;;7.00;99.90;;;;;;4415566;32;20301;-79
2022/12/22 04:52:49;;;;;;;0.68;0.68;;;6.90;99.90;;;;;;4415963;32;20564;-79
2022/12/22 04:55:16;;;;;;;0.60;0.60;;;6.90;99.90;;;;;;4415952;32;20069;-78
2022/12/22 04:57:41;;;;;;;1.12;1.02;;;6.90;99.90;;;;;;4411174;32;20120;-79
2022/12/22 05:00:08;;;;;;;3.30;1.02;;;6.90;99.90;;;;;;4415015;32;20066;-78
2022/12/22 05:02:34;;;;;;;0.68;0.62;;;6.90;99.90;;;;;;4413078;32;20095;-78
2022/12/22 05:04:59;;;;;;;1.42;1.08;;;6.80;99.90;;;;;;4413520;32;20101;-78
2022/12/22 05:07:25;;;;;;;0.60;0.60;;;6.90;99.90;;;;;;4400036;32;20114;-78
2022/12/22 05:09:50;;;;;;;0.80;0.77;;;6.80;99.90;;;;;;4409751;32;20221;-78
2022/12/22 05:13:16;;;;;;;1.45;1.23;;;6.80;99.90;;;;;;4399482;32;20078;-78
2022/12/22 05:15:03;;;;;;;0.40;0.40;;;6.80;99.90;;;;;;4389799;32;20113;-78
2022/12/22 05:17:28;;;;;;;0.73;0.73;;;6.80;99.90;;;;;;4413432;32;20070;-78
2022/12/22 05:19:53;;;;;;;1.15;0.93;;;6.80;99.90;;;;;;4409545;32;20066;-78
2022/12/22 05:22:19;;;;;;;0.80;0.70;;;6.90;99.90;;;;;;4413046;32;20089;-79
2022/12/22 05:24:46;;;;;;;1.60;0.65;;;6.90;99.90;;;;;;4412895;32;20061;-78
2022/12/22 05:27:12;;;;;;;0.77;0.77;;;6.90;99.90;;;;;;4414119;32;20082;-78
2022/12/22 05:29:38;;;;;;;0.65;0.65;;;6.90;99.90;;;;;;4410437;32;20058;-78
2022/12/22 05:32:04;;;;;;;0.52;0.52;;;6.90;99.90;;;;;;4408678;32;20077;-78
2022/12/22 05:34:31;;;;;;;1.77;1.20;;;6.90;99.90;;;;;;4411075;32;20778;-78
2022/12/22 05:36:56;;;;;;;0.50;0.50;;;6.80;99.90;;;;;;4413962;32;20131;-78
2022/12/22 05:39:22;;;;;;;0.60;0.60;;;6.90;99.90;;;;;;4413308;32;20081;-78
2022/12/22 05:41:47;;;;;;;1.25;0.80;;;6.90;99.90;;;;;;4398261;32;20098;-78
2022/12/22 05:44:12;;;;;;;0.80;0.80;;;6.90;99.90;;;;;;4397502;32;20065;-79
2022/12/22 05:46:38;;;;;;;0.70;0.70;;;6.90;99.90;;;;;;4412763;32;20077;-78
2022/12/22 05:49:03;;;;;;;0.40;0.40;;;6.90;99.90;;;;;;4411777;32;20081;-78
2022/12/22 05:51:29;;;;;;;2.08;0.93;;;6.90;99.90;;;;;;4409184;32;20522;-77
2022/12/22 05:53:54;;;;;;;0.50;0.50;;;6.90;99.90;;;;;;4406936;32;20109;-77
2022/12/22 05:56:20;;;;;;;0.75;0.75;;;7.00;99.90;;;;;;4409489;32;20098;-78
2022/12/22 05:58:45;;;;;;;1.37;0.60;;;7.00;99.90;;;;;;4407825;32;20122;-78
2022/12/22 06:01:11;;;;;;;0.40;0.40;;;7.00;99.90;;;;;;4407989;32;20122;-78
2022/12/22 06:03:36;;;;;;;1.35;0.82;;;7.00;99.90;;;;;;4404711;32;20198;-78
2022/12/22 06:06:02;;;;;;;9.20;1.20;;;7.10;99.90;;;;;;4405001;32;20089;-78
2022/12/22 06:08:27;;;;;;;1.45;0.77;;;7.10;99.90;;;;;;4401960;32;20144;-78
2022/12/22 06:10:54;;;;;;;0.40;0.40;;;7.10;99.90;;;;;;4391577;32;20151;-78
2022/12/22 06:13:21;;;;;;;2.15;1.85;;;7.10;99.90;;;;;;4380752;32;20214;-78
2022/12/22 06:15:47;;;;;;;1.98;0.80;;;7.10;99.90;;;;;;4390262;32;20244;-78
2022/12/22 06:18:13;;;;;;;0.75;0.75;;;7.10;99.90;;;;;;4401498;32;20452;-78
2022/12/22 06:20:38;;;;;;;0.37;0.37;;;7.10;99.90;;;;;;4402160;32;20668;-78
2022/12/22 06:23:03;;;;;;;0.60;0.60;;;7.10;99.90;;;;;;4400955;32;20575;-78
2022/12/22 06:25:29;;;;;;;0.77;0.75;;;7.10;99.90;;;;;;4399527;32;20078;-78
2022/12/22 06:27:54;;;;;;;1.15;0.90;;;7.20;99.90;;;;;;4400495;32;20077;-78
2022/12/22 06:30:22;;;;;;;3.53;0.68;;;7.20;99.90;;;;;;4409414;32;20091;-78
2022/12/22 06:32:48;;;;;;;0.50;0.50;;;7.20;99.90;;;;;;4405288;32;20244;-78
2022/12/22 06:35:13;;;;;;;0.80;0.80;;;7.20;99.90;;;;;;4402161;32;20093;-78
2022/12/22 06:37:39;;;;;;;0.52;0.52;;;7.10;99.90;;;;;;4408852;32;20657;-78
2022/12/22 06:40:06;;;;;;;0.43;0.43;;;7.10;99.90;;;;;;4411732;32;20082;-78
2022/12/22 06:43:32;;;;;;;2.67;1.08;;;7.10;99.90;;;;;;4402915;32;20389;-78
2022/12/22 06:45:17;;;;;;;1.05;0.95;;;7.20;99.90;;;;;;4389646;32;20090;-78
2022/12/22 06:47:43;;;;;;;1.12;1.08;;;7.10;99.90;;;;;;4406545;32;20147;-77
2022/12/22 06:50:09;;;;;;;1.37;0.68;;;7.10;99.90;;;;;;4410631;32;20094;-78
2022/12/22 06:52:35;;;;;;;0.80;0.80;;;7.10;99.90;;;;;;4412582;32;20093;-79
2022/12/22 06:55:01;;;;;;;0.45;0.45;;;7.10;99.90;;;;;;4415284;32;20159;-78
2022/12/22 06:57:27;;;;;;;0.68;0.68;;;7.10;99.90;;;;;;4414882;32;20073;-78
2022/12/22 06:59:52;;;;;;;1.80;0.95;;;7.20;99.90;;;;;;4407211;32;20078;-78
2022/12/22 07:02:18;;;;;;;0.55;0.55;;;7.20;99.90;;;;;;4406352;32;20435;-78
2022/12/22 07:04:44;;;;;;;0.40;0.40;;;7.20;99.90;;;;;;4400572;32;20077;-78
2022/12/22 07:07:10;;;;;;;0.88;0.88;;;7.20;99.90;;;;;;4404792;32;20082;-78
2022/12/22 07:09:35;;;;;;;1.73;1.15;;;7.20;99.90;;;;;;4408719;32;20082;-78
2022/12/22 07:12:02;;;;;;;1.62;1.17;;;7.20;99.90;;;;;;4392876;32;20550;-79
2022/12/22 07:14:27;;;;;;;0.57;0.57;;;7.20;99.90;;;;;;4386746;32;20066;-78
2022/12/22 07:16:53;;;;;;;0.75;0.75;;;7.20;99.90;;;;;;4399625;32;20086;-78
2022/12/22 07:19:18;;;;;;;34.85;0.95;;;7.20;99.90;;;;;;4406986;32;20074;-78
2022/12/22 07:21:47;;;;;;;0.77;0.60;;;7.20;99.90;;;;;;4409178;32;20169;-78
2022/12/22 07:24:13;;;;;;;0.65;0.65;;;7.20;99.90;;;;;;4407336;32;20608;-78
2022/12/22 07:26:39;;;;;;;0.45;0.45;;;7.20;99.90;;;;;;4405708;32;20130;-78
2022/12/22 07:29:04;;;;;;;0.43;0.43;;;7.20;99.90;;;;;;4402284;32;20086;-78
2022/12/22 07:31:29;;;;;;;0.37;0.37;;;7.20;99.90;;;;;;4400566;32;104640;-79
2022/12/22 07:33:55;;;;;;;0.47;0.47;;;7.30;99.90;;;;;;4395704;32;20132;-79
2022/12/22 07:36:21;;;;;;;0.50;0.50;;;7.30;99.90;;;;;;4403977;32;20066;-78
2022/12/22 07:38:49;;;;;;;0.57;0.57;;;7.30;99.90;;;;;;4410978;32;20486;-78
2022/12/22 07:42:48;;;;;;;1.08;0.80;;;7.20;99.90;;;;;;4395944;32;20494;-78
2022/12/22 07:44:03;;;;;;;1.37;1.08;;;7.30;99.90;;;;;;4374891;32;20074;-79
2022/12/22 07:46:32;;;;;;;0.85;0.80;;;7.30;99.90;;;;;;4401440;32;20095;-79
2022/12/22 07:50:31;;;;;;;1.70;1.23;;;7.30;99.90;;;;;;4408098;32;20109;-78
2022/12/22 07:51:43;;;;;;;1.27;0.75;;;7.30;99.90;;;;;;4397686;32;20144;-78
2022/12/22 07:54:13;;;;;;;1.67;0.75;;;7.30;99.90;;;;;;4407096;32;20129;-78
2022/12/22 07:56:39;;;;;;;1.95;0.80;;;7.30;99.90;;;;;;4407269;32;20082;-78
2022/12/22 07:59:05;;;;;;;0.52;0.52;;;7.30;99.90;;;;;;4408198;32;20070;-78
2022/12/22 08:01:31;;;;;;;1.08;1.00;;;7.40;99.90;;;;;;4407481;32;20117;-78
2022/12/22 08:03:57;;;;;;;0.45;0.45;;;7.40;99.90;;;;;;4398393;32;20069;-79
2022/12/22 08:06:22;;;;;;;1.33;0.98;;;7.40;99.90;;;;;;4403955;32;20086;-78
2022/12/22 08:08:48;;;;;;;0.62;0.62;;;7.40;99.90;;;;;;4410783;32;20073;-79
2022/12/22 08:11:14;;;;;;;0.68;0.68;;;7.40;99.90;;;;;;4402219;32;20089;-78
2022/12/22 08:13:39;;;;;;;1.20;0.95;;;7.40;99.90;;;;;;4390638;32;20065;-79
2022/12/22 08:16:07;;;;;;;0.80;0.80;;;7.40;99.90;;;;;;4401114;32;20110;-79
2022/12/22 08:18:34;;;;;;;8.85;2.08;;;7.50;99.90;;;;;;4405131;32;20086;-79
2022/12/22 08:21:00;;;;;;;0.85;0.60;;;7.60;99.90;;;;;;4407615;32;20125;-78
2022/12/22 08:23:26;;;;;;;0.30;0.30;;;7.60;99.90;;;;;;4409140;32;20773;-78
2022/12/22 08:26:01;;;;;;;2.65;0.98;;;7.60;99.90;;;;;;4407506;32;20081;-78
2022/12/22 08:28:28;;;;;;;2.22;1.67;;;7.60;99.90;;;;;;4409279;32;20123;-79
2022/12/22 08:30:54;;;;;;;0.85;0.85;;;7.60;99.90;;;;;;4410615;32;20125;-79
2022/12/22 08:33:19;;;;;;;17.98;0.80;;;7.60;99.90;;;;;;4406588;32;20077;-78
2022/12/22 08:35:44;;;;;;;0.60;0.60;;;7.70;99.90;;;;;;4402346;32;20422;-79
2022/12/22 08:38:11;;;;;;;0.70;0.70;;;7.70;99.90;;;;;;4405871;32;20112;-78
2022/12/22 08:40:37;;;;;;;0.40;0.40;;;7.70;99.90;;;;;;4404238;32;20078;-79
2022/12/22 08:43:07;;;;;;;1.45;0.93;;;7.70;99.90;;;;;;4391236;32;20085;-78
2022/12/22 08:45:33;;;;;;;0.50;0.50;;;7.70;99.90;;;;;;4396595;32;20074;-78
2022/12/22 08:47:58;;;;;;;0.90;0.90;;;7.70;99.90;;;;;;4406203;32;20073;-78
2022/12/22 08:50:24;;;;;;;1.90;0.75;;;7.70;99.90;;;;;;4410351;32;21788;-78
2022/12/22 08:52:49;;;;;;;1.35;0.57;;;7.70;99.90;;;;;;4409197;32;20093;-78
2022/12/22 08:55:17;;;;;;;0.40;0.40;;;7.80;99.90;;;;;;4409200;32;20085;-79
2022/12/22 08:57:42;;;;;;;2.53;1.10;;;7.80;99.90;;;;;;4408537;32;20090;-78
2022/12/22 09:00:10;;;;;;;0.40;0.40;;;7.80;99.90;;;;;;4413144;32;20081;-79
2022/12/22 09:02:37;;;;;;;1.27;0.73;;;7.80;99.90;;;;;;4405249;32;20086;-78
2022/12/22 09:05:02;;;;;;;0.50;0.50;;;7.90;99.90;;;;;;4401841;32;20854;-79
2022/12/22 09:07:29;;;;;;;0.32;0.32;;;7.80;99.90;;;;;;4405264;32;20081;-78
2022/12/22 09:09:56;;;;;;;0.45;0.45;;;7.90;99.90;;;;;;4406805;32;20166;-78
2022/12/22 09:12:21;;;;;;;0.70;0.70;;;7.90;99.90;;;;;;4396533;32;20113;-79
2022/12/22 09:14:47;;;;;;;3.10;0.77;;;7.90;99.90;;;;;;4392810;32;20526;-79
2022/12/22 09:17:12;;;;;;;2.28;0.95;;;8.00;99.90;;;;;;4404333;32;20101;-78
2022/12/22 09:19:38;;;;;;;0.95;0.90;;;8.00;99.90;;;;;;4407709;32;20074;-78
2022/12/22 09:22:03;;;;;;;0.40;0.40;;;8.00;99.90;;;;;;4410185;32;20097;-78
2022/12/22 09:24:29;;;;;;;0.80;0.40;;;8.00;99.90;;;;;;4408762;32;20101;-79
2022/12/22 09:26:54;;;;;;;0.40;0.40;;;8.00;99.90;;;;;;4409304;32;20065;-78
2022/12/22 09:29:20;;;;;;;0.50;0.50;;;8.00;99.90;;;;;;4409068;32;20090;-78
2022/12/22 09:31:45;;;;;;;0.75;0.75;;;8.00;99.90;;;;;;4404726;32;20172;-78
2022/12/22 09:34:12;;;;;;;0.90;0.90;;;8.10;99.90;;;;;;4396892;32;20524;-78
2022/12/22 09:36:40;;;;;;;1.35;1.05;;;8.10;99.90;;;;;;4402072;32;20062;-79
2022/12/22 09:39:09;;;;;;;0.40;0.40;;;8.10;99.90;;;;;;4408531;32;20236;-78
2022/12/22 09:41:53;;;;;;;2.50;1.23;;;8.10;99.90;;;;;;4398411;32;20126;-79
2022/12/22 09:44:25;;;;;;;0.65;0.65;;;8.10;99.90;;;;;;4371165;32;20146;-78
2022/12/22 09:46:53;;;;;;;3.72;1.35;;;8.10;99.90;;;;;;4402142;32;20435;-78
2022/12/22 09:49:21;;;;;;;0.95;0.52;;;8.10;99.90;;;;;;4408364;32;20105;-78
2022/12/22 09:51:52;;;;;;;0.40;0.40;;;8.10;99.90;;;;;;4406710;32;20086;-78
2022/12/22 09:54:19;;;;;;;0.75;0.75;;;8.00;99.90;;;;;;4414655;32;20089;-78
2022/12/22 09:56:45;;;;;;;0.70;0.70;;;8.00;99.90;;;;;;4408442;32;20070;-77
2022/12/22 09:59:15;;;;;;;0.43;0.43;;;8.10;99.90;;;;;;4409957;32;20077;-78
2022/12/22 10:01:57;;;;;;;0.60;0.60;;;8.10;99.90;;;;;;4411396;32;20110;-78
2022/12/22 10:04:43;;;;;;;0.85;0.82;;;8.20;99.90;;;;;;4400198;32;20078;-78
2022/12/22 10:07:33;;;;;;;0.47;0.47;;;8.20;99.90;;;;;;4402836;32;20090;-78
2022/12/22 10:10:24;;;;;;;0.57;0.57;;;8.20;99.90;;;;;;4391160;32;21017;-78
2022/12/22 10:12:55;;;;;;;2.53;1.00;;;8.20;99.90;;;;;;4376984;32;20196;-78
2022/12/22 10:15:21;;;;;;;0.30;0.30;;;8.20;99.90;;;;;;4391261;32;20165;-78
2022/12/22 10:17:50;;;;;;;0.40;0.40;;;8.30;99.90;;;;;;4399905;32;20703;-78
2022/12/22 10:20:24;;;;;;;0.62;0.62;;;8.20;99.90;;;;;;4402594;32;20098;-78
2022/12/22 10:22:53;;;;;;;0.70;0.60;;;8.20;99.90;;;;;;4402604;32;20869;-78
2022/12/22 10:25:38;;;;;;;0.50;0.50;;;8.20;99.90;;;;;;4404611;32;20077;-78
2022/12/22 10:28:09;;;;;;;1.50;1.02;;;8.20;99.90;;;;;;4404756;32;20165;-78
2022/12/22 10:30:37;;;;;;;0.85;0.80;;;8.30;99.90;;;;;;4403118;32;20090;-78
2022/12/22 10:33:15;;;;;;;0.55;0.55;;;8.30;99.90;;;;;;4397282;32;20054;-78
2022/12/22 10:35:44;;;;;;;0.50;0.50;;;8.40;99.90;;;;;;4394099;32;20366;-78
2022/12/22 10:38:19;;;;;;;4.43;0.60;;;8.40;99.90;;;;;;4401907;32;20465;-78
2022/12/22 10:40:47;;;;;;;0.60;0.60;;;8.40;99.90;;;;;;4396243;32;20153;-78
2022/12/22 10:43:20;;;;;;;0.55;0.50;;;8.50;99.90;;;;;;4370678;32;20074;-78
2022/12/22 10:45:48;;;;;;;11.80;1.70;;;8.50;99.90;;;;;;4390133;32;20086;-78
2022/12/22 10:48:13;;;;;;;0.50;0.50;;;8.40;99.90;;;;;;4399629;32;21497;-78
2022/12/22 10:50:48;;;;;;;1.85;1.50;;;8.50;99.90;;;;;;4400850;32;20141;-78
2022/12/22 10:53:13;;;;;;;0.57;0.57;;;8.50;99.90;;;;;;4401873;32;20082;-78
2022/12/22 10:55:39;;;;;;;0.43;0.43;;;8.60;99.90;;;;;;4400582;32;20090;-77
2022/12/22 10:58:15;;;;;;;0.50;0.50;;;8.50;99.90;;;;;;4401039;32;20084;-77
2022/12/22 11:00:41;;;;;;;0.40;0.40;;;8.60;99.90;;;;;;4400576;32;20081;-77
2022/12/22 11:03:10;;;;;;;1.42;0.82;;;8.50;99.90;;;;;;4393552;32;20106;-78
2022/12/22 11:05:36;;;;;;;2.83;0.75;;;8.60;99.90;;;;;;4395365;32;20900;-78
2022/12/22 11:08:19;;;;;;;0.57;0.57;;;8.60;99.90;;;;;;4401709;32;20140;-77
2022/12/22 11:10:54;;;;;;;1.00;0.82;;;8.60;99.90;;;;;;4386073;32;20126;-78
2022/12/22 11:13:59;;;;;;;1.08;0.70;;;8.60;99.90;;;;;;4382913;32;20592;-78
2022/12/22 11:16:39;;;;;;;0.50;0.50;;;8.70;99.90;;;;;;4383656;32;20098;-77
2022/12/22 11:19:44;;;;;;;0.62;0.62;;;8.70;99.90;;;;;;4405512;32;20102;-78
2022/12/22 11:22:29;;;;;;;0.45;0.45;;;8.70;99.90;;;;;;4396236;32;20086;-78
2022/12/22 11:25:19;;;;;;;1.30;0.75;;;8.70;99.90;;;;;;4389393;32;20139;-77
2022/12/22 11:28:11;;;;;;;0.62;0.62;;;8.70;99.90;;;;;;4390592;32;20109;-77
2022/12/22 11:32:48;;;;;;;1.25;0.75;;;8.80;99.90;;;;;;4404102;32;20083;-77
2022/12/22 11:34:38;;;;;;;3.03;0.75;;;8.80;99.90;;;;;;4366673;32;20081;-79
2022/12/22 11:37:13;;;;;;;;;;;8.80;99.90;;;;;;4387726;32;20168;-80
2022/12/22 11:39:47;;;;;;;0.70;0.70;;;8.80;99.90;;;;;;4400865;32;19961;-80
2022/12/22 11:42:35;;;;;;;0.45;0.45;;;8.80;99.90;;;;;;4386041;32;20114;-77
2022/12/22 11:45:05;;;;;;;1.10;0.93;;;8.80;99.90;;;;;;4361988;32;20126;-79
2022/12/22 11:47:41;;;;;;;2.33;1.17;;;8.80;99.90;;;;;;4397592;32;20114;-77
2022/12/22 11:50:44;;;;;;;0.47;0.47;;;8.80;99.90;;;;;;4406715;32;20066;-77
2022/12/22 11:53:40;;;;;;;0.40;0.40;;;8.90;99.90;;;;;;4391820;32;21169;-78
2022/12/22 11:56:35;;;;;;;2.08;0.80;;;8.90;99.90;;;;;;4403386;32;20113;-77
2022/12/22 11:59:27;;;;;;;0.62;0.62;;;8.90;99.90;;;;;;4386692;32;20101;-78
2022/12/22 12:02:33;;;;;;;0.77;0.77;;;8.90;99.90;;;;;;4390820;32;20070;-78
2022/12/22 12:05:13;;;;;;;0.62;0.57;;;8.90;99.90;;;;;;4376013;32;20082;-77
2022/12/22 12:07:43;;;;;;;0.50;0.50;;;8.90;99.90;;;;;;4399097;32;20062;-77
2022/12/22 12:10:29;;;;;;;0.50;0.50;;;8.90;99.90;;;;;;4398938;32;20057;-77
2022/12/22 12:13:25;;;;;;;0.85;0.60;;;8.90;99.90;;;;;;4369590;32;20078;-77
2022/12/22 12:16:13;;;;;;;5.05;2.15;;;8.90;99.90;;;;;;4379176;32;20146;-77
2022/12/22 12:19:07;;;;;;;2.20;1.20;;;9.00;99.90;;;;;;4390114;32;20079;-77
2022/12/22 12:21:49;;;;;;;0.40;0.40;;;8.90;99.90;;;;;;4391166;32;20082;-77
2022/12/22 12:24:32;;;;;;;0.80;0.50;;;8.90;99.90;;;;;;4388733;32;20106;-78
2022/12/22 12:27:33;;;;;;;0.68;0.68;;;9.00;99.90;;;;;;4402577;32;20466;-78
2022/12/22 12:30:09;;;;;;;0.52;0.52;;;8.90;99.90;;;;;;4392605;32;20105;-78
2022/12/22 12:32:44;;;;;;;0.50;0.50;;;9.00;99.90;;;;;;4397459;32;20078;-78
2022/12/22 12:35:37;;;;;;;0.40;0.40;;;9.00;99.90;;;;;;4394619;32;20097;-78
2022/12/22 12:38:12;;;;;;;0.40;0.40;;;9.00;99.90;;;;;;4391157;32;20082;-78
2022/12/22 12:41:01;;;;;;;0.60;0.60;;;9.00;99.90;;;;;;4398099;32;20092;-78
2022/12/22 12:43:27;;;;;;;1.12;0.98;;;9.00;99.90;;;;;;4385356;32;20102;-78
2022/12/22 12:45:54;;;;;;;0.50;0.50;;;9.00;99.90;;;;;;4391496;32;20494;-78
2022/12/22 12:48:22;;;;;;;0.85;0.60;;;9.00;99.90;;;;;;4402117;32;20070;-78
2022/12/22 12:50:50;;;;;;;0.50;0.50;;;9.00;99.90;;;;;;4403276;32;20073;-78
2022/12/22 12:53:19;;;;;;;2.92;0.73;;;9.10;99.90;;;;;;4402704;32;20074;-79
2022/12/22 12:55:47;;;;;;;0.52;0.52;;;9.10;99.90;;;;;;4403029;32;20181;-78
2022/12/22 12:58:36;;;;;;;2.75;0.70;;;9.10;99.90;;;;;;4405351;32;20098;-78
2022/12/22 13:01:12;;;;;;;0.65;0.65;;;9.10;99.90;;;;;;4391313;32;20137;-78
2022/12/22 13:03:40;;;;;;;0.40;0.40;;;9.10;99.90;;;;;;4393200;32;20106;-78
2022/12/22 13:06:08;;;;;;;1.95;0.70;;;9.10;99.90;;;;;;4395239;32;20078;-78
2022/12/22 13:09:09;;;;;;;0.32;0.32;;;9.10;99.90;;;;;;4405325;32;20820;-78
2022/12/22 13:11:36;;;;;;;0.40;0.40;;;9.10;99.90;;;;;;4379529;32;20600;-78
2022/12/22 13:14:02;;;;;;;0.50;0.50;;;9.10;99.90;;;;;;4380487;32;20161;-78
2022/12/22 13:16:31;;;;;;;0.35;0.35;;;9.10;99.90;;;;;;4393862;32;20571;-79
2022/12/22 13:18:58;;;;;;;0.55;0.50;;;9.10;99.90;;;;;;4400288;32;20126;-78
2022/12/22 13:21:27;;;;;;;0.40;0.40;;;9.10;99.90;;;;;;4402962;32;20085;-79
2022/12/22 13:24:15;;;;;;;0.75;0.75;;;9.10;99.90;;;;;;4400567;32;20117;-78
2022/12/22 13:26:42;;;;;;;0.50;0.50;;;9.10;99.90;;;;;;4388561;32;21057;-78
2022/12/22 13:29:17;;;;;;;0.70;0.70;;;9.10;99.90;;;;;;4402944;32;20090;-78
2022/12/22 13:31:47;;;;;;;3.55;0.88;;;9.10;99.90;;;;;;4402713;32;20097;-78
2022/12/22 13:34:35;;;;;;;0.60;0.60;;;9.10;99.90;;;;;;4392751;32;20086;-79
2022/12/22 13:37:11;;;;;;;0.50;0.50;;;9.10;99.90;;;;;;4384963;32;20101;-78
2022/12/22 13:39:36;;;;;;;0.32;0.32;;;9.10;99.90;;;;;;4402345;32;20507;-78
2022/12/22 13:42:05;;;;;;;0.43;0.43;;;9.10;99.90;;;;;;4388833;32;20086;-78
2022/12/22 13:44:32;;;;;;;1.45;0.90;;;9.20;99.90;;;;;;4383678;32;20636;-77
2022/12/22 13:47:05;;;;;;;0.40;0.40;;;9.20;99.90;;;;;;4395607;32;20117;-77
2022/12/22 13:49:34;;;;;;;0.70;0.70;;;9.20;99.90;;;;;;4402252;32;20109;-77
2022/12/22 13:52:00;;;;;;;0.70;0.70;;;9.10;99.90;;;;;;4400197;32;20530;-77
2022/12/22 13:54:32;;;;;;;0.40;0.40;;;9.10;99.90;;;;;;4400642;32;20454;-77
2022/12/22 13:56:59;;;;;;;0.75;0.70;;;9.10;99.90;;;;;;4403412;32;20092;-77
2022/12/22 13:59:34;;;;;;;0.50;0.50;;;9.10;99.90;;;;;;4403877;32;20169;-78
2022/12/22 14:02:12;;;;;;;0.60;0.60;;;9.10;99.90;;;;;;4400469;32;20680;-77
2022/12/22 14:04:41;;;;;;;0.50;0.50;;;9.20;99.90;;;;;;4394033;32;20514;-77
2022/12/22 14:07:12;;;;;;;8.38;1.87;;;9.10;99.90;;;;;;4397568;32;20066;-77
2022/12/22 14:09:43;;;;;;;0.70;0.70;;;9.20;99.90;;;;;;4401079;32;20816;-78
2022/12/22 14:12:15;;;;;;;0.70;0.70;;;9.20;99.90;;;;;;4386651;32;20081;-78
2022/12/22 14:14:44;;;;;;;0.50;0.50;;;9.20;99.90;;;;;;4383004;32;20252;-77
2022/12/22 14:17:21;;;;;;;0.68;0.68;;;9.20;99.90;;;;;;4396195;32;20093;-78
2022/12/22 14:19:50;;;;;;;0.40;0.40;;;9.20;99.90;;;;;;4403295;32;20070;-77
2022/12/22 14:22:21;;;;;;;0.60;0.60;;;9.20;99.90;;;;;;4400600;32;20070;-78
2022/12/22 14:24:53;;;;;;;0.43;0.43;;;9.20;99.90;;;;;;4401291;32;20057;-77
2022/12/22 14:27:37;;;;;;;0.75;0.60;;;9.20;99.90;;;;;;4400323;32;20141;-78
2022/12/22 14:30:06;;;;;;;0.45;0.45;;;9.20;99.90;;;;;;4399725;32;20178;-78
2022/12/22 14:32:38;;;;;;;0.47;0.47;;;9.20;99.90;;;;;;4399940;32;20884;-78
2022/12/22 14:35:20;;;;;;;0.50;0.50;;;9.10;99.90;;;;;;4395251;32;20141;-78
2022/12/22 14:37:50;;;;;;;3.20;0.80;;;9.10;99.90;;;;;;4404717;32;20095;-78
2022/12/22 14:40:33;;;;;;;0.60;0.60;;;9.10;99.90;;;;;;4400849;32;20101;-78
2022/12/22 14:43:02;;;;;;;0.45;0.45;;;9.10;99.90;;;;;;4387799;32;20106;-78
2022/12/22 14:45:27;;;;;;;0.93;0.77;;;9.10;99.90;;;;;;4392341;32;20433;-78
2022/12/22 14:47:54;;;;;;;3.15;1.80;;;9.20;99.90;;;;;;4402089;32;20066;-78
2022/12/22 14:50:24;;;;;;;0.57;0.57;;;9.20;99.90;;;;;;4405602;32;20511;-78
2022/12/22 14:52:53;;;;;;;0.40;0.40;;;9.10;99.90;;;;;;4404683;32;20946;-78
2022/12/22 14:55:39;;;;;;;0.40;0.40;;;9.10;99.90;;;;;;4403993;32;20058;-78
2022/12/22 14:58:14;;;;;;;0.60;0.45;;;9.10;99.90;;;;;;4393022;32;20423;-78
2022/12/22 15:00:42;;;;;;;0.40;0.40;;;9.10;99.90;;;;;;4406740;32;20136;-78
2022/12/22 15:03:36;;;;;;;0.30;0.30;;;9.10;99.90;;;;;;4394899;32;20078;-78
2022/12/22 15:06:30;;;;;;;1.77;0.50;;;9.10;99.90;;;;;;4385917;32;20062;-78
2022/12/22 15:09:07;;;;;;;0.47;0.47;;;9.00;99.90;;;;;;4395198;32;20127;-78
2022/12/22 15:11:36;;;;;;;0.50;0.50;;;9.00;99.90;;;;;;4393917;32;20208;-78
2022/12/22 15:14:03;;;;;;;0.37;0.37;;;9.00;99.90;;;;;;4379741;32;20065;-78
2022/12/22 15:16:29;;;;;;;0.40;0.40;;;9.00;99.90;;;;;;4398948;32;20496;-78
2022/12/22 15:18:55;;;;;;;0.43;0.43;;;9.00;99.90;;;;;;4406797;32;20148;-78
2022/12/22 15:21:21;;;;;;;0.30;0.30;;;9.00;99.90;;;;;;4407044;32;20058;-78
2022/12/22 15:23:47;;;;;;;0.82;0.57;;;9.00;99.90;;;;;;4405865;32;20078;-78
2022/12/22 15:26:13;;;;;;;2.45;0.75;;;9.00;99.90;;;;;;4405425;32;20125;-78
2022/12/22 15:28:39;;;;;;;0.40;0.40;;;9.00;99.90;;;;;;4408998;32;20061;-78
2022/12/22 15:31:13;;;;;;;0.57;0.57;;;9.00;99.90;;;;;;4404604;32;20102;-78
2022/12/22 15:33:38;;;;;;;0.40;0.40;;;8.90;99.90;;;;;;4404623;32;20734;-78
2022/12/22 15:36:05;;;;;;;0.20;0.20;;;8.90;99.90;;;;;;4405373;32;20086;-78
2022/12/22 15:38:30;;;;;;;1.77;0.65;;;8.90;99.90;;;;;;4405079;32;20074;-78
2022/12/22 15:40:56;;;;;;;0.35;0.35;;;9.00;99.90;;;;;;4397985;32;20062;-78
2022/12/22 15:43:21;;;;;;;0.30;0.30;;;8.90;99.90;;;;;;4392344;32;20094;-78
2022/12/22 15:45:47;;;;;;;0.30;0.30;;;8.90;99.90;;;;;;4399100;32;20372;-78
2022/12/22 15:48:20;;;;;;;0.30;0.30;;;9.00;99.90;;;;;;4405302;32;20842;-78
2022/12/22 15:50:46;;;;;;;0.60;0.60;;;9.00;99.90;;;;;;4404284;32;20145;-78
2022/12/22 15:53:18;;;;;;;0.40;0.40;;;9.00;99.90;;;;;;4407206;32;20515;-78
2022/12/22 15:55:48;;;;;;;0.37;0.37;;;8.90;99.90;;;;;;4403912;32;20093;-78
2022/12/22 15:58:16;;;;;;;0.40;0.40;;;8.90;99.90;;;;;;4406037;32;20073;-80
2022/12/22 16:00:42;;;;;;;0.37;0.37;;;8.90;99.90;;;;;;4402411;32;20236;-78
2022/12/22 16:03:09;;;;;;;0.50;0.50;;;8.90;99.90;;;;;;4403331;32;20106;-78
2022/12/22 16:05:34;;;;;;;0.85;0.68;;;9.00;99.90;;;;;;4403383;32;20082;-78
2022/12/22 16:08:01;;;;;;;0.30;0.30;;;8.90;99.90;;;;;;4402920;32;20114;-78
2022/12/22 16:10:29;;;;;;;0.45;0.45;;;9.00;99.90;;;;;;4393830;32;20140;-78
2022/12/22 16:12:59;;;;;;;0.40;0.40;;;8.90;99.90;;;;;;4389711;32;20121;-78
2022/12/22 16:15:26;;;;;;;1.12;0.70;;;8.90;99.90;;;;;;4395010;32;20136;-78
2022/12/22 16:17:52;;;;;;;0.32;0.32;;;8.90;99.90;;;;;;4401805;32;20420;-79
2022/12/22 16:20:19;;;;;;;0.47;0.47;;;8.90;99.90;;;;;;4402434;32;20131;-78
2022/12/22 16:22:47;;;;;;;0.50;0.50;;;8.90;99.90;;;;;;4402259;32;20094;-78
2022/12/22 16:25:15;;;;;;;0.60;0.52;;;8.90;99.90;;;;;;4401870;32;20577;-78
2022/12/22 16:27:46;;;;;;;0.43;0.43;;;8.90;99.90;;;;;;4403002;32;20549;-80
2022/12/22 16:30:18;;;;;;;3.60;1.00;;;8.80;99.90;;;;;;4401654;32;20187;-79
2022/12/22 16:32:44;;;;;;;0.40;0.40;;;8.80;99.90;;;;;;4405441;32;20094;-79
2022/12/22 16:35:13;;;;;;;0.95;0.73;;;8.80;99.90;;;;;;4402115;32;20093;-79
2022/12/22 16:37:41;;;;;;;0.47;0.47;;;8.80;99.90;;;;;;4378060;32;20548;-79
2022/12/22 16:40:07;;;;;;;0.50;0.50;;;8.80;99.90;;;;;;4400543;32;20082;-79
2022/12/22 16:42:33;;;;;;;0.45;0.45;;;8.80;99.90;;;;;;4391478;32;20106;-79